Time;durP1;ratioP1;P1;durP2;ratioP2;P2;SDS_P1;SDS_P2;PMS_P1;PMS_P2;Temp;Humidity;BMP_temperature;BMP_pressure;BME280_temperature;BME280_humidity;BME280_pressure;Samples;Min_cycle;Max_cycle;Signal;HPM_P1;HPM_P2
2023/11/29 00:00:53;;;;;;;;;;;;;;;3.92;64.70;98315.47;4468498;32;33256;-87
2023/11/29 00:03:20;;;;;;;;;;;;;;;3.81;64.95;98318.50;4473609;32;32966;-87
2023/11/29 00:05:48;;;;;;;;;;;;;;;3.94;64.35;98321.47;4466483;32;34055;-87
2023/11/29 00:08:15;;;;;;;;;;;;;;;3.90;64.88;98325.97;4473693;32;33237;-87
2023/11/29 00:10:43;;;;;;;;;;;;;;;3.45;65.39;98315.56;4460821;32;34512;-88
2023/11/29 00:13:11;;;;;;;;;;;;;;;3.88;63.61;98311.28;4471247;32;32009;-88
2023/11/29 00:15:39;;;;;;;;;;;;;;;4.07;62.38;98314.84;4473577;32;32840;-87
2023/11/29 00:18:06;;;;;;;;;;;;;;;3.83;61.93;98314.91;4461045;32;33168;-87
2023/11/29 00:20:34;;;;;;;;;;;;;;;3.11;63.62;98311.66;4470039;32;33680;-87
2023/11/29 00:23:02;;;;;;;;;;;;;;;3.44;63.06;98324.31;4446174;32;32166;-87
2023/11/29 00:25:30;;;;;;;;;;;;;;;3.19;64.18;98340.06;4453142;32;34025;-88
2023/11/29 00:27:58;;;;;;;;;;;;;;;2.90;64.17;98334.16;4454763;32;33895;-88
2023/11/29 00:30:28;;;;;;;;;;;;;;;2.91;63.70;98328.03;4460162;32;34194;-87
2023/11/29 00:32:56;;;;;;;;;;;;;;;2.65;65.30;98331.56;4456565;32;33595;-88
2023/11/29 00:35:24;;;;;;;;;;;;;;;2.79;64.47;98331.91;4465794;32;33994;-88
2023/11/29 00:37:52;;;;;;;;;;;;;;;2.87;63.98;98333.41;4461611;32;33444;-88
2023/11/29 00:40:19;;;;;;;;;;;;;;;2.89;63.51;98342.00;4458050;32;33966;-88
2023/11/29 00:42:47;;;;;;;;;;;;;;;2.40;64.52;98328.09;4465024;32;32314;-88
2023/11/29 00:45:14;;;;;;;;;;;;;;;2.45;64.41;98337.47;4449998;32;33791;-88
2023/11/29 00:47:42;;;;;;;;;;;;;;;2.13;65.52;98366.31;4470970;32;33012;-88
2023/11/29 00:50:09;;;;;;;;;;;;;;;2.48;64.56;98378.19;4461439;32;33687;-88
2023/11/29 00:52:36;;;;;;;;;;;;;;;2.25;65.22;98372.00;4460592;32;32417;-86
2023/11/29 00:55:06;;;;;;;;;;;;;;;2.51;64.31;98385.87;4455419;32;34047;-87
2023/11/29 00:57:34;;;;;;;;;;;;;;;2.74;62.82;98401.59;4448404;32;33156;-87
2023/11/29 01:00:01;;;;;;;;;;;;;;;2.94;61.86;98415.69;4453686;32;34208;-86
2023/11/29 01:02:30;;;;;;;;;;;;;;;2.80;62.91;98422.25;4446592;32;32342;-87
2023/11/29 01:04:57;;;;;;;;;;;;;;;2.31;64.47;98423.87;4469330;32;32414;-87
2023/11/29 01:07:25;;;;;;;;;;;;;;;2.27;64.45;98401.44;4460917;32;34494;-87
2023/11/29 01:09:53;;;;;;;;;;;;;;;2.59;63.28;98398.69;4460726;32;33518;-86
2023/11/29 01:12:20;;;;;;;;;;;;;;;2.67;62.67;98415.75;4472493;32;33542;-86
2023/11/29 01:14:47;;;;;;;;;;;;;;;2.70;62.55;98410.41;4473935;32;34334;-87
2023/11/29 01:17:15;;;;;;;;;;;;;;;2.69;62.56;98424.38;4462323;32;34269;-86
2023/11/29 01:19:44;;;;;;;;;;;;;;;2.40;62.86;98421.88;4460960;32;33213;-87
2023/11/29 01:22:12;;;;;;;;;;;;;;;2.48;62.99;98431.16;4462851;32;32517;-85
2023/11/29 01:24:39;;;;;;;;;;;;;;;2.04;63.96;98430.84;4462213;32;34272;-86
2023/11/29 01:27:07;;;;;;;;;;;;;;;1.87;64.51;98424.44;4459117;32;33363;-87
2023/11/29 01:29:35;;;;;;;;;;;;;;;1.77;65.32;98431.69;4450697;32;33123;-87
2023/11/29 01:32:03;;;;;;;;;;;;;;;2.77;60.91;98434.53;4457163;32;31905;-86
2023/11/29 01:34:30;;;;;;;;;;;;;;;2.46;61.78;98442.50;4461837;32;33038;-87
2023/11/29 01:36:59;;;;;;;;;;;;;;;2.38;61.74;98440.19;4458196;32;34960;-86
2023/11/29 01:39:26;;;;;;;;;;;;;;;2.76;60.55;98438.06;4463583;32;35134;-86
2023/11/29 01:41:54;;;;;;;;;;;;;;;2.31;62.26;98454.28;4460247;32;32134;-87
2023/11/29 01:44:21;;;;;;;;;;;;;;;2.13;62.70;98450.50;4468410;32;33785;-87
2023/11/29 01:46:49;;;;;;;;;;;;;;;1.98;63.58;98462.25;4470901;32;33111;-86
2023/11/29 01:49:18;;;;;;;;;;;;;;;2.33;62.20;98467.25;4463313;32;34755;-86
2023/11/29 01:51:48;;;;;;;;;;;;;;;2.39;61.05;98473.12;4457650;32;32183;-86
2023/11/29 01:54:16;;;;;;;;;;;;;;;2.53;61.00;98480.50;4466600;32;33405;-86
2023/11/29 01:56:43;;;;;;;;;;;;;;;2.53;60.90;98486.56;4464812;32;33360;-86
2023/11/29 01:59:11;;;;;;;;;;;;;;;2.25;62.00;98489.19;4466285;32;33969;-86
2023/11/29 02:01:39;;;;;;;;;;;;;;;2.24;62.39;98495.31;4465045;32;33487;-86
2023/11/29 02:04:06;;;;;;;;;;;;;;;2.27;61.84;98492.59;4463216;32;33165;-85
2023/11/29 02:06:34;;;;;;;;;;;;;;;2.19;62.37;98489.38;4478313;32;33965;-86
2023/11/29 02:09:02;;;;;;;;;;;;;;;2.33;61.59;98490.69;4471819;32;33057;-86
2023/11/29 02:11:30;;;;;;;;;;;;;;;2.29;61.26;98503.84;4470922;32;32698;-86
2023/11/29 02:13:58;;;;;;;;;;;;;;;2.37;60.95;98510.53;4462778;32;34852;-87
2023/11/29 02:16:26;;;;;;;;;;;;;;;2.30;61.54;98521.16;4464128;32;34003;-87
2023/11/29 02:18:53;;;;;;;;;;;;;;;2.32;61.57;98526.31;4464274;32;33856;-86
2023/11/29 02:21:24;;;;;;;;;;;;;;;2.11;61.79;98530.44;4454197;32;33054;-86
2023/11/29 02:23:58;;;;;;;;;;;;;;;2.12;62.28;98534.72;4474051;32;33798;-86
2023/11/29 02:26:27;;;;;;;;;;;;;;;2.21;61.89;98526.66;4464186;32;34087;-86
2023/11/29 02:28:55;;;;;;;;;;;;;;;2.60;59.93;98536.72;4467271;32;32960;-86
2023/11/29 02:31:22;;;;;;;;;;;;;;;2.50;59.99;98536.16;4460674;32;32387;-84
2023/11/29 02:33:51;;;;;;;;;;;;;;;2.28;60.97;98536.00;4461747;32;34558;-85
2023/11/29 02:36:18;;;;;;;;;;;;;;;2.30;60.99;98542.00;4467275;32;33703;-85
2023/11/29 02:38:47;;;;;;;;;;;;;;;2.42;60.29;98545.13;4449188;32;32905;-84
2023/11/29 02:41:14;;;;;;;;;;;;;;;1.77;62.84;98557.44;4462475;32;33021;-83
2023/11/29 02:43:42;;;;;;;;;;;;;;;1.90;62.00;98567.47;4461880;32;33703;-84
2023/11/29 02:46:09;;;;;;;;;;;;;;;2.34;60.10;98570.56;4474756;32;34962;-85
2023/11/29 02:48:37;;;;;;;;;;;;;;;2.50;59.49;98584.81;4463147;32;34439;-85
2023/11/29 02:51:04;;;;;;;;;;;;;;;2.54;59.34;98587.28;4464011;32;32367;-89
2023/11/29 02:53:32;;;;;;;;;;;;;;;2.34;60.44;98604.44;4448216;32;33136;-88
2023/11/29 02:56:00;;;;;;;;;;;;;;;1.91;62.11;98603.06;4476266;32;32860;-87
2023/11/29 02:58:28;;;;;;;;;;;;;;;2.48;60.09;98610.94;4473294;32;34824;-87
2023/11/29 03:00:55;;;;;;;;;;;;;;;2.83;59.00;98608.97;4478063;32;33647;-86
2023/11/29 03:03:24;;;;;;;;;;;;;;;2.83;58.83;98612.44;4474603;32;33987;-86
2023/11/29 03:05:53;;;;;;;;;;;;;;;3.20;57.39;98624.31;4470907;32;33418;-86
2023/11/29 03:08:20;;;;;;;;;;;;;;;2.40;60.62;98630.28;4460983;32;32741;-86
2023/11/29 03:10:48;;;;;;;;;;;;;;;3.03;58.56;98631.81;4464498;32;32467;-86
2023/11/29 03:13:15;;;;;;;;;;;;;;;2.82;59.48;98642.03;4466609;32;33993;-87
2023/11/29 03:15:43;;;;;;;;;;;;;;;2.73;59.65;98652.72;4452925;32;33606;-86
2023/11/29 03:18:11;;;;;;;;;;;;;;;2.70;59.85;98655.41;4463343;32;34201;-87
2023/11/29 03:20:38;;;;;;;;;;;;;;;3.15;57.19;98656.66;4465968;32;32847;-87
2023/11/29 03:23:06;;;;;;;;;;;;;;;2.63;59.79;98664.34;4461314;32;33065;-88
2023/11/29 03:25:34;;;;;;;;;;;;;;;3.35;56.59;98672.53;4455838;32;34244;-88
2023/11/29 03:28:02;;;;;;;;;;;;;;;3.11;58.07;98675.91;4472597;32;35073;-88
2023/11/29 03:30:30;;;;;;;;;;;;;;;3.29;57.53;98681.41;4463580;32;33405;-87
2023/11/29 03:32:57;;;;;;;;;;;;;;;3.43;56.53;98680.13;4459380;32;33191;-87
2023/11/29 03:35:25;;;;;;;;;;;;;;;3.66;55.11;98680.22;4451930;32;33805;-87
2023/11/29 03:37:53;;;;;;;;;;;;;;;3.32;56.52;98691.75;4471254;32;33844;-87
2023/11/29 03:40:20;;;;;;;;;;;;;;;3.29;57.11;98698.81;4460012;32;32702;-87
2023/11/29 03:42:48;;;;;;;;;;;;;;;2.93;58.70;98699.03;4461533;32;34725;-86
2023/11/29 03:45:15;;;;;;;;;;;;;;;2.88;58.79;98700.94;4459286;32;34006;-86
2023/11/29 03:47:43;;;;;;;;;;;;;;;3.30;57.74;98703.13;4468901;32;33779;-86
2023/11/29 03:50:12;;;;;;;;;;;;;;;3.06;57.50;98703.00;4463328;32;34173;-86
2023/11/29 03:52:39;;;;;;;;;;;;;;;2.99;57.76;98703.22;4464644;32;32977;-86
2023/11/29 03:55:07;;;;;;;;;;;;;;;2.97;58.60;98710.25;4472164;32;33993;-86
2023/11/29 03:57:35;;;;;;;;;;;;;;;3.07;58.28;98711.66;4461180;32;32613;-86
2023/11/29 04:00:03;;;;;;;;;;;;;;;3.18;57.35;98714.81;4448083;32;32154;-86
2023/11/29 04:02:31;;;;;;;;;;;;;;;2.28;60.74;98731.34;4461572;32;33252;-87
2023/11/29 04:04:58;;;;;;;;;;;;;;;2.64;59.16;98738.16;4474555;32;34062;-87
2023/11/29 04:07:26;;;;;;;;;;;;;;;2.79;59.26;98741.16;4465403;32;33461;-87
2023/11/29 04:09:54;;;;;;;;;;;;;;;3.01;57.11;98743.16;4463264;32;33253;-88
2023/11/29 04:12:32;;;;;;;;;;;;;;;3.01;57.99;98743.16;4464901;32;34603;-87
2023/11/29 04:14:59;;;;;;;;;;;;;;;2.72;58.50;98752.69;4462495;32;34247;-87
2023/11/29 04:17:26;;;;;;;;;;;;;;;3.37;56.60;98756.84;4463265;32;32818;-88
2023/11/29 04:19:54;;;;;;;;;;;;;;;3.02;58.00;98768.31;4462088;32;33736;-88
2023/11/29 04:22:21;;;;;;;;;;;;;;;2.79;58.90;98771.59;4468319;32;32776;-87
2023/11/29 04:24:49;;;;;;;;;;;;;;;3.19;57.39;98770.44;4461926;32;33525;-87
2023/11/29 04:27:16;;;;;;;;;;;;;;;3.50;56.61;98786.84;4446713;32;33205;-87
2023/11/29 04:29:44;;;;;;;;;;;;;;;3.24;56.92;98792.88;4464599;32;33392;-87
2023/11/29 04:32:12;;;;;;;;;;;;;;;2.87;58.48;98802.69;4453556;32;32849;-87
2023/11/29 04:34:40;;;;;;;;;;;;;;;2.67;59.22;98801.50;4467230;32;33061;-86
2023/11/29 04:37:14;;;;;;;;;;;;;;;3.25;57.29;98812.84;4463619;32;34212;-86
2023/11/29 04:39:42;;;;;;;;;;;;;;;3.10;57.28;98815.91;4474268;32;32353;-87
2023/11/29 04:42:09;;;;;;;;;;;;;;;3.32;57.27;98821.31;4455396;31;32932;-87
2023/11/29 04:44:37;;;;;;;;;;;;;;;3.11;57.30;98827.19;4450917;32;33012;-86
2023/11/29 04:47:05;;;;;;;;;;;;;;;3.28;57.18;98836.25;4450764;32;34459;-87
2023/11/29 04:49:32;;;;;;;;;;;;;;;3.80;54.88;98833.78;4462756;32;32066;-87
2023/11/29 04:52:00;;;;;;;;;;;;;;;3.43;56.59;98839.28;4463483;32;32583;-87
2023/11/29 04:54:27;;;;;;;;;;;;;;;3.28;56.57;98836.25;4473728;32;34160;-85
2023/11/29 04:56:55;;;;;;;;;;;;;;;3.02;57.75;98839.59;4462540;32;32079;-86
2023/11/29 04:59:22;;;;;;;;;;;;;;;3.29;57.30;98827.50;4476345;32;32493;-87
2023/11/29 05:01:51;;;;;;;;;;;;;;;2.66;58.14;98838.00;4475992;32;33954;-87
2023/11/29 05:04:19;;;;;;;;;;;;;;;2.50;58.32;98840.16;4462214;32;34313;-87
2023/11/29 05:06:49;;;;;;;;;;;;;;;3.10;57.47;98836.78;4465109;32;33409;-84
2023/11/29 05:09:17;;;;;;;;;;;;;;;2.94;57.40;98830.28;4472047;32;33254;-86
2023/11/29 05:11:45;;;;;;;;;;;;;;;3.29;56.26;98835.34;4476051;32;36113;-88
2023/11/29 05:14:12;;;;;;;;;;;;;;;3.34;55.57;98832.59;4461606;32;34376;-88
2023/11/29 05:16:43;;;;;;;;;;;;;;;3.12;56.96;98834.97;4461192;32;33183;-87
2023/11/29 05:19:11;;;;;;;;;;;;;;;3.11;56.33;98828.03;4463609;32;33179;-88
2023/11/29 05:21:38;;;;;;;;;;;;;;;2.77;57.68;98828.16;4462218;32;34776;-88
2023/11/29 05:24:06;;;;;;;;;;;;;;;2.53;58.44;98829.69;4446455;32;33286;-89
2023/11/29 05:26:33;;;;;;;;;;;;;;;2.76;57.21;98829.91;4473414;32;34423;-89
2023/11/29 05:29:02;;;;;;;;;;;;;;;2.94;56.30;98827.66;4462084;32;32154;-89
2023/11/29 05:31:31;;;;;;;;;;;;;;;2.76;56.66;98824.69;4459244;32;33866;-89
2023/11/29 05:33:59;;;;;;;;;;;;;;;2.16;59.19;98835.84;4452908;32;32489;-89
2023/11/29 05:36:26;;;;;;;;;;;;;;;2.87;56.35;98823.53;4462438;32;33891;-89
2023/11/29 05:38:54;;;;;;;;;;;;;;;2.50;57.84;98827.13;4472481;32;33844;-90
2023/11/29 05:41:22;;;;;;;;;;;;;;;2.55;57.24;98827.87;4464431;32;33657;-89
2023/11/29 05:43:49;;;;;;;;;;;;;;;1.89;59.68;98839.09;4446649;32;33940;-89
2023/11/29 05:46:17;;;;;;;;;;;;;;;2.50;57.64;98827.13;4460813;32;33518;-87
2023/11/29 05:48:44;;;;;;;;;;;;;;;2.21;58.26;98833.09;4461016;32;33622;-86
2023/11/29 05:51:13;;;;;;;;;;;;;;;2.05;58.41;98837.84;4466800;32;33429;-85
2023/11/29 05:53:40;;;;;;;;;;;;;;;2.06;58.59;98860.38;4458613;32;32549;-85
2023/11/29 05:56:08;;;;;;;;;;;;;;;2.20;57.90;98853.09;4475695;32;33458;-88
2023/11/29 05:58:39;;;;;;;;;;;;;;;2.43;57.65;98868.16;4464530;32;32198;-86
2023/11/29 06:01:07;;;;;;;;;;;;;;;1.92;59.20;98878.09;4449720;32;32865;-86
2023/11/29 06:03:35;;;;;;;;;;;;;;;2.22;58.05;98882.53;4464500;32;33817;-86
2023/11/29 06:06:04;;;;;;;;;;;;;;;2.29;57.85;98894.53;4462931;32;33861;-86
2023/11/29 06:08:31;;;;;;;;;;;;;;;2.39;56.97;98894.31;4466599;32;32331;-86
2023/11/29 06:10:59;;;;;;;;;;;;;;;2.60;56.48;98888.53;4448181;32;32866;-85
2023/11/29 06:13:27;;;;;;;;;;;;;;;2.52;56.43;98906.16;4459599;32;34658;-87
2023/11/29 06:15:55;;;;;;;;;;;;;;;1.95;58.59;98915.34;4461007;32;32588;-86
2023/11/29 06:18:23;;;;;;;;;;;;;;;2.26;57.29;98904.19;4459846;32;32124;-86
2023/11/29 06:20:51;;;;;;;;;;;;;;;2.25;57.62;98908.53;4471028;32;32943;-85
2023/11/29 06:23:18;;;;;;;;;;;;;;;2.35;56.95;98914.38;4464223;32;36059;-85
2023/11/29 06:25:47;;;;;;;;;;;;;;;2.77;55.65;98912.41;4459583;32;34368;-86
2023/11/29 06:28:15;;;;;;;;;;;;;;;2.81;55.42;98914.06;4459547;32;32511;-87
2023/11/29 06:30:43;;;;;;;;;;;;;;;2.52;56.51;98919.19;4475860;32;33819;-87
2023/11/29 06:33:10;;;;;;;;;;;;;;;2.85;55.52;98922.66;4452043;32;33574;-87
2023/11/29 06:35:38;;;;;;;;;;;;;;;2.21;57.87;98926.87;4464172;32;33907;-86
2023/11/29 06:38:05;;;;;;;;;;;;;;;1.87;58.96;98937.22;4446662;32;32481;-86
2023/11/29 06:40:35;;;;;;;;;;;;;;;2.07;58.36;98936.75;4460904;32;33610;-86
2023/11/29 06:43:13;;;;;;;;;;;;;;;2.50;56.73;98932.22;4448350;32;33533;-86
2023/11/29 06:45:41;;;;;;;;;;;;;;;2.11;57.87;98936.66;4459239;32;33551;-86
2023/11/29 06:48:08;;;;;;;;;;;;;;;1.75;60.05;98938.31;4462997;32;33192;-84
2023/11/29 06:50:36;;;;;;;;;;;;;;;1.26;61.35;98945.41;4460695;32;33378;-85
2023/11/29 06:53:04;;;;;;;;;;;;;;;1.79;59.98;98948.63;4472921;32;34003;-86
2023/11/29 06:55:35;;;;;;;;;;;;;;;1.56;60.77;98957.81;4461367;32;33900;-85
2023/11/29 06:58:02;;;;;;;;;;;;;;;2.17;58.47;98954.72;4453522;32;33800;-86
2023/11/29 07:00:43;;;;;;;;;;;;;;;2.16;58.11;98958.22;4465520;31;33100;-86
2023/11/29 07:03:12;;;;;;;;;;;;;;;1.88;59.67;98955.41;4459598;32;34855;-85
2023/11/29 07:05:40;;;;;;;;;;;;;;;1.10;61.46;98970.00;4464024;31;34889;-86
2023/11/29 07:08:08;;;;;;;;;;;;;;;1.18;61.53;98983.69;4449128;32;32789;-86
2023/11/29 07:10:35;;;;;;;;;;;;;;;1.44;61.60;98978.00;4468170;32;34447;-86
2023/11/29 07:13:05;;;;;;;;;;;;;;;2.15;58.47;98979.97;4453339;32;32985;-86
2023/11/29 07:15:33;;;;;;;;;;;;;;;2.18;58.43;98985.09;4462960;32;33350;-86
2023/11/29 07:18:01;;;;;;;;;;;;;;;2.07;58.81;98996.66;4458926;32;35375;-86
2023/11/29 07:20:29;;;;;;;;;;;;;;;2.50;56.70;98988.69;4448215;32;34554;-86
2023/11/29 07:23:10;;;;;;;;;;;;;;;2.16;58.08;98993.84;4463649;32;33046;-87
2023/11/29 07:25:38;;;;;;;;;;;;;;;1.74;59.55;99010.34;4462694;32;34467;-87
2023/11/29 07:28:05;;;;;;;;;;;;;;;2.34;57.60;99003.00;4448548;32;32411;-87
2023/11/29 07:31:08;;;;;;;;;;;;;;;2.49;56.89;99019.09;4462004;32;34139;-89
2023/11/29 07:33:36;;;;;;;;;;;;;;;2.47;57.01;99023.50;4452172;32;34390;-88
2023/11/29 07:36:11;;;;;;;;;;;;;;;1.71;59.43;99026.03;4461194;32;33125;-88
2023/11/29 07:38:40;;;;;;;;;;;;;;;1.77;59.10;99036.31;4459353;32;32130;-87
2023/11/29 07:41:08;;;;;;;;;;;;;;;1.35;60.48;99042.34;4463673;32;32897;-87
2023/11/29 07:43:35;;;;;;;;;;;;;;;1.68;59.69;99046.06;4457740;32;34041;-88
2023/11/29 07:46:04;;;;;;;;;;;;;;;1.75;59.31;99045.88;4460918;32;33911;-88
2023/11/29 07:48:32;;;;;;;;;;;;;;;1.98;58.50;99050.63;4461041;32;31861;-87
2023/11/29 07:50:59;;;;;;;;;;;;;;;1.62;60.03;99052.25;4461742;32;33529;-86
2023/11/29 07:53:28;;;;;;;;;;;;;;;1.22;60.35;99052.97;4450955;32;33268;-86
2023/11/29 07:55:56;;;;;;;;;;;;;;;1.57;59.35;99043.69;4464378;32;34181;-86
2023/11/29 07:58:24;;;;;;;;;;;;;;;2.25;57.29;99043.97;4475360;32;34573;-85
2023/11/29 08:01:00;;;;;;;;;;;;;;;2.58;56.15;99044.09;4455427;32;34033;-85
2023/11/29 08:03:28;;;;;;;;;;;;;;;1.67;59.51;99049.56;4463249;32;33775;-84
2023/11/29 08:05:56;;;;;;;;;;;;;;;1.96;58.36;99048.97;4450469;32;34031;-85
2023/11/29 08:08:24;;;;;;;;;;;;;;;2.23;56.78;99043.16;4461468;32;32796;-85
2023/11/29 08:10:52;;;;;;;;;;;;;;;2.24;57.15;99051.84;4459441;32;33112;-85
2023/11/29 08:13:20;;;;;;;;;;;;;;;2.61;55.79;99046.66;4459689;32;33516;-85
2023/11/29 08:15:47;;;;;;;;;;;;;;;2.62;55.95;99056.19;4464130;32;34350;-85
2023/11/29 08:18:15;;;;;;;;;;;;;;;2.15;56.57;99063.31;4450687;32;32843;-85
2023/11/29 08:20:42;;;;;;;;;;;;;;;2.79;54.90;99066.19;4475391;32;34140;-85
2023/11/29 08:23:09;;;;;;;;;;;;;;;2.66;55.26;99080.41;4474151;32;32947;-85
2023/11/29 08:25:37;;;;;;;;;;;;;;;1.85;57.69;99085.59;4451161;32;34189;-85
2023/11/29 08:28:05;;;;;;;;;;;;;;;1.88;58.64;99092.50;4462236;32;34195;-85
2023/11/29 08:30:32;;;;;;;;;;;;;;;2.54;56.41;99091.97;4461901;32;32528;-85
2023/11/29 08:33:00;;;;;;;;;;;;;;;3.12;54.07;99089.72;4472639;32;34183;-85
2023/11/29 08:35:28;;;;;;;;;;;;;;;2.88;54.61;99097.25;4457445;32;33831;-85
2023/11/29 08:37:55;;;;;;;;;;;;;;;2.66;55.30;99099.53;4460857;32;32849;-85
2023/11/29 08:40:23;;;;;;;;;;;;;;;2.50;56.11;99111.16;4471796;32;33149;-85
2023/11/29 08:42:50;;;;;;;;;;;;;;;3.18;53.29;99106.09;4454519;32;33011;-85
2023/11/29 08:45:18;;;;;;;;;;;;;;;3.21;54.09;99111.22;4466400;32;34342;-85
2023/11/29 08:47:49;;;;;;;;;;;;;;;3.09;53.83;99121.97;4460902;32;33339;-86
2023/11/29 08:50:16;;;;;;;;;;;;;;;3.16;53.14;99118.31;4461975;32;34497;-85
2023/11/29 08:52:44;;;;;;;;;;;;;;;3.27;52.36;99112.81;4463584;32;33656;-85
2023/11/29 08:55:12;;;;;;;;;;;;;;;3.61;51.84;99120.66;4476953;32;34210;-85
2023/11/29 08:57:41;;;;;;;;;;;;;;;3.67;51.35;99124.87;4462324;32;31870;-85
2023/11/29 09:00:12;;;;;;;;;;;;;;;3.91;50.59;99134.66;4458597;32;33204;-85
2023/11/29 09:02:40;;;;;;;;;;;;;;;3.91;52.14;99145.09;4454494;32;33554;-85
2023/11/29 09:05:08;;;;;;;;;;;;;;;3.94;50.77;99146.75;4472131;32;34344;-85
2023/11/29 09:07:36;;;;;;;;;;;;;;;4.16;50.50;99154.84;4474025;32;32891;-85
2023/11/29 09:10:05;;;;;;;;;;;;;;;3.73;52.08;99161.25;4458977;32;34384;-89
2023/11/29 09:12:33;;;;;;;;;;;;;;;3.63;52.91;99165.84;4469860;32;33963;-90
2023/11/29 09:15:05;;;;;;;;;;;;;;;3.86;50.98;99162.66;4446517;32;33164;-88
2023/11/29 09:17:33;;;;;;;;;;;;;;;3.66;52.44;99162.31;4444416;32;33457;-86
2023/11/29 09:20:01;;;;;;;;;;;;;;;3.96;51.20;99173.69;4461215;32;33518;-86
2023/11/29 09:22:29;;;;;;;;;;;;;;;4.41;49.54;99165.47;4450091;32;34515;-87
2023/11/29 09:24:57;;;;;;;;;;;;;;;4.66;48.60;99170.84;4457973;32;33793;-88
2023/11/29 09:27:25;;;;;;;;;;;;;;;3.95;49.52;99177.22;4460479;32;33441;-89
2023/11/29 09:29:52;;;;;;;;;;;;;;;4.02;50.38;99178.75;4460682;32;32956;-87
2023/11/29 09:32:20;;;;;;;;;;;;;;;4.78;48.62;99166.09;4463047;32;34441;-88
2023/11/29 09:34:48;;;;;;;;;;;;;;;4.96;48.42;99166.44;4462710;32;33556;-88
2023/11/29 09:37:15;;;;;;;;;;;;;;;5.02;47.64;99154.00;4472164;32;32077;-87
2023/11/29 09:39:43;;;;;;;;;;;;;;;4.95;47.58;99147.28;4448507;32;33144;-88
2023/11/29 09:42:10;;;;;;;;;;;;;;;4.65;49.11;99154.28;4471471;32;34333;-88
2023/11/29 09:44:39;;;;;;;;;;;;;;;5.18;46.91;99149.16;4458437;32;34097;-87
2023/11/29 09:47:07;;;;;;;;;;;;;;;4.88;47.85;99154.44;4451171;32;35236;-87
2023/11/29 09:49:35;;;;;;;;;;;;;;;5.28;47.59;99153.19;4467775;31;33249;-86
2023/11/29 09:52:03;;;;;;;;;;;;;;;5.13;47.23;99157.16;4451202;32;34544;-88
2023/11/29 09:54:31;;;;;;;;;;;;;;;5.28;47.47;99155.81;4463272;32;33624;-88
2023/11/29 09:56:58;;;;;;;;;;;;;;;4.99;46.99;99161.97;4456057;32;32778;-87
2023/11/29 09:59:26;;;;;;;;;;;;;;;5.68;45.68;99164.94;4464436;32;33960;-87
2023/11/29 10:01:54;;;;;;;;;;;;;;;4.94;48.49;99170.84;4462843;32;33453;-88
2023/11/29 10:04:21;;;;;;;;;;;;;;;5.68;45.98;99170.19;4465064;32;33061;-87
2023/11/29 10:06:49;;;;;;;;;;;;;;;6.04;44.45;99168.09;4472042;31;34007;-88
2023/11/29 10:09:16;;;;;;;;;;;;;;;6.17;44.25;99163.25;4455657;32;33227;-87
2023/11/29 10:11:44;;;;;;;;;;;;;;;6.07;45.09;99173.22;4462146;32;34883;-89
2023/11/29 10:14:12;;;;;;;;;;;;;;;5.72;45.85;99165.72;4452485;32;33958;-87
2023/11/29 10:16:39;;;;;;;;;;;;;;;5.83;44.86;99174.91;4478138;32;33606;-88
2023/11/29 10:19:09;;;;;;;;;;;;;;;5.85;45.00;99180.97;4472862;32;34423;-89
2023/11/29 10:21:41;;;;;;;;;;;;;;;6.33;42.98;99179.31;4465201;32;33074;-87
2023/11/29 10:24:09;;;;;;;;;;;;;;;6.58;42.94;99179.25;4462247;32;34106;-87
2023/11/29 10:26:36;;;;;;;;;;;;;;;6.76;42.65;99173.31;4459295;32;32720;-90
2023/11/29 10:29:04;;;;;;;;;;;;;;;6.85;42.26;99166.88;4462926;32;34879;-87
2023/11/29 10:31:32;;;;;;;;;;;;;;;5.90;45.16;99176.41;4462367;32;34671;-87
2023/11/29 10:33:59;;;;;;;;;;;;;;;6.26;44.12;99168.19;4464590;32;34879;-87
2023/11/29 10:36:28;;;;;;;;;;;;;;;6.72;42.50;99176.13;4461217;32;33278;-87
2023/11/29 10:39:08;;;;;;;;;;;;;;;7.20;40.76;99175.97;4476208;32;33992;-87
2023/11/29 10:41:57;;;;;;;;;;;;;;;6.69;42.18;99171.84;4482908;31;33900;-86
2023/11/29 10:44:33;;;;;;;;;;;;;;;6.38;42.23;99175.63;4476929;32;33122;-87
2023/11/29 10:47:23;;;;;;;;;;;;;;;6.59;40.82;99178.34;4476127;31;32936;-87
2023/11/29 10:49:53;;;;;;;;;;;;;;;6.32;42.00;99185.47;4473452;32;33762;-87
2023/11/29 10:52:20;;;;;;;;;;;;;;;6.13;42.57;99180.03;4474089;32;33770;-87
2023/11/29 10:54:47;;;;;;;;;;;;;;;5.89;43.54;99184.34;4477431;32;33603;-86
2023/11/29 10:57:18;;;;;;;;;;;;;;;6.17;42.71;99179.00;4435690;32;32387;-86
2023/11/29 10:59:46;;;;;;;;;;;;;;;6.07;42.74;99183.72;4464366;32;33659;-86
2023/11/29 11:02:14;;;;;;;;;;;;;;;6.31;41.89;99181.12;4464051;32;34261;-86
2023/11/29 11:04:43;;;;;;;;;;;;;;;5.66;43.48;99179.88;4464063;32;34030;-86
2023/11/29 11:07:34;;;;;;;;;;;;;;;5.68;43.45;99175.44;4474514;32;31832;-86
2023/11/29 11:10:02;;;;;;;;;;;;;;;5.71;43.58;99179.72;4484306;31;34775;-87
2023/11/29 11:12:33;;;;;;;;;;;;;;;5.84;43.35;99176.63;4469290;32;33464;-88
2023/11/29 11:15:24;;;;;;;;;;;;;;;5.88;42.59;99172.97;4464753;32;33003;-88
2023/11/29 11:18:01;;;;;;;;;;;;;;;5.79;42.99;99175.94;4464217;32;32630;-88
2023/11/29 11:20:43;;;;;;;;;;;;;;;5.67;43.75;99178.97;4462480;32;33052;-88
2023/11/29 11:23:17;;;;;;;;;;;;;;;5.94;42.27;99181.59;4473485;32;35284;-88
2023/11/29 11:25:45;;;;;;;;;;;;;;;6.03;42.11;99181.25;4462191;32;33320;-86
2023/11/29 11:28:33;;;;;;;;;;;;;;;5.81;41.75;99176.72;4461679;32;32108;-85
2023/11/29 11:31:02;;;;;;;;;;;;;;;5.84;42.30;99174.03;4459705;32;33005;-86
2023/11/29 11:33:48;;;;;;;;;;;;;;;5.82;41.14;99170.56;4464490;32;33286;-85
2023/11/29 11:36:16;;;;;;;;;;;;;;;5.84;41.60;99170.50;4473445;32;33209;-85
2023/11/29 11:38:43;;;;;;;;;;;;;;;5.82;41.73;99186.28;4477141;31;32983;-86
2023/11/29 11:41:11;;;;;;;;;;;;;;;5.81;42.67;99192.44;4457616;32;33621;-86
2023/11/29 11:43:38;;;;;;;;;;;;;;;5.93;42.29;99185.09;4449848;32;33246;-85
2023/11/29 11:46:06;;;;;;;;;;;;;;;6.20;41.29;99178.03;4474738;32;33755;-85
2023/11/29 11:48:33;;;;;;;;;;;;;;;6.37;39.56;99176.53;4459014;32;32073;-85
2023/11/29 11:51:01;;;;;;;;;;;;;;;6.37;39.59;99178.31;4457813;32;33229;-85
2023/11/29 11:53:41;;;;;;;;;;;;;;;6.01;41.19;99190.94;4474397;32;34722;-85
2023/11/29 11:56:17;;;;;;;;;;;;;;;6.28;40.44;99192.59;4442637;32;33398;-85
2023/11/29 11:58:44;;;;;;;;;;;;;;;6.01;41.89;99198.81;4473897;32;33732;-86
2023/11/29 12:01:12;;;;;;;;;;;;;;;6.22;41.38;99212.91;4460371;32;34374;-85
2023/11/29 12:03:39;;;;;;;;;;;;;;;6.40;38.60;99217.50;4461268;32;34569;-85
2023/11/29 12:06:08;;;;;;;;;;;;;;;6.03;40.70;99225.78;4461933;32;33427;-85
2023/11/29 12:08:36;;;;;;;;;;;;;;;6.25;40.00;99218.91;4456013;32;33285;-85
2023/11/29 12:11:08;;;;;;;;;;;;;;;6.22;40.32;99219.03;4454257;32;33748;-86
2023/11/29 12:13:36;;;;;;;;;;;;;;;6.40;39.20;99218.34;4450148;32;33830;-85
2023/11/29 12:16:13;;;;;;;;;;;;;;;6.38;39.99;99220.19;4472360;32;34077;-85
2023/11/29 12:18:41;;;;;;;;;;;;;;;6.88;37.79;99221.84;4457693;32;32363;-86
2023/11/29 12:21:08;;;;;;;;;;;;;;;6.98;37.96;99224.97;4471072;32;34666;-85
2023/11/29 12:23:40;;;;;;;;;;;;;;;6.88;38.68;99225.34;4448662;32;36293;-86
2023/11/29 12:26:07;;;;;;;;;;;;;;;7.00;38.43;99217.91;4449324;32;32891;-85
2023/11/29 12:28:35;;;;;;;;;;;;;;;6.74;39.59;99230.25;4456551;32;32879;-85
2023/11/29 12:31:03;;;;;;;;;;;;;;;6.61;39.79;99215.87;4459054;32;33166;-85
2023/11/29 12:33:32;;;;;;;;;;;;;;;6.54;39.40;99214.38;4464828;32;33182;-86
2023/11/29 12:36:03;;;;;;;;;;;;;;;6.72;38.94;99221.56;4462556;32;34720;-85
2023/11/29 12:38:32;;;;;;;;;;;;;;;6.96;38.51;99213.69;4477771;32;32628;-85
2023/11/29 12:41:00;;;;;;;;;;;;;;;7.01;38.69;99211.75;4461870;32;33181;-85
2023/11/29 12:43:29;;;;;;;;;;;;;;;7.37;38.58;99206.84;4468782;32;34980;-86
2023/11/29 12:45:56;;;;;;;;;;;;;;;7.14;39.65;99205.97;4464998;32;33589;-86
2023/11/29 12:48:25;;;;;;;;;;;;;;;7.09;39.34;99201.81;4471903;32;33191;-86
2023/11/29 12:50:54;;;;;;;;;;;;;;;6.64;40.73;99218.38;4465087;32;33764;-85
2023/11/29 12:53:23;;;;;;;;;;;;;;;7.08;39.49;99213.22;4461457;32;33987;-86
2023/11/29 12:55:50;;;;;;;;;;;;;;;7.27;38.58;99205.50;4472566;32;32878;-85
2023/11/29 12:58:17;;;;;;;;;;;;;;;6.66;40.27;99213.94;4463338;32;32528;-86
2023/11/29 13:00:45;;;;;;;;;;;;;;;7.15;38.46;99218.16;4471665;32;34492;-85
2023/11/29 13:03:13;;;;;;;;;;;;;;;7.09;38.84;99218.41;4463755;32;33876;-85
2023/11/29 13:05:41;;;;;;;;;;;;;;;6.90;39.79;99223.50;4474104;32;35434;-85